createdAt,value
2018-07-23T00:01:21.407Z,26.20
2018-07-23T00:03:49.246Z,26.20
2018-07-23T00:06:17.662Z,26.18
2018-07-23T00:08:45.270Z,26.17
2018-07-23T00:11:13.514Z,26.16
2018-07-23T00:13:41.164Z,26.13
2018-07-23T00:16:08.807Z,26.08
2018-07-23T00:18:36.785Z,26.13
2018-07-23T00:21:04.606Z,26.14
2018-07-23T00:23:32.582Z,26.13
2018-07-23T00:26:00.714Z,26.12
2018-07-23T00:28:28.600Z,26.14
2018-07-23T00:30:56.617Z,26.14
2018-07-23T00:33:24.263Z,26.13
2018-07-23T00:35:51.897Z,26.10
2018-07-23T00:38:19.642Z,26.10
2018-07-23T00:40:47.626Z,26.09
2018-07-23T00:43:15.228Z,26.09
2018-07-23T00:45:43.243Z,26.07
2018-07-23T00:48:10.846Z,26.07
2018-07-23T00:50:38.848Z,26.06
2018-07-23T00:53:06.733Z,26.05
2018-07-23T00:55:34.845Z,25.84
2018-07-23T00:58:02.769Z,26.03
2018-07-23T01:00:30.505Z,26.04
2018-07-23T01:03:02.661Z,26.03
2018-07-23T01:05:30.581Z,26.01
2018-07-23T01:07:58.216Z,26.01
2018-07-23T01:10:26.262Z,26.00
2018-07-23T01:12:53.946Z,26.00
2018-07-23T01:15:21.605Z,25.97
2018-07-23T01:17:49.292Z,25.96
2018-07-23T01:20:17.162Z,25.95
2018-07-23T01:22:44.864Z,25.94
2018-07-23T01:25:13.141Z,25.94
2018-07-23T01:27:41.069Z,25.92
2018-07-23T01:30:08.738Z,25.92
2018-07-23T01:32:36.340Z,25.89
2018-07-23T01:35:04.008Z,25.87
2018-07-23T01:37:31.960Z,25.86
2018-07-23T01:39:59.956Z,25.85
2018-07-23T01:42:28.096Z,25.85
2018-07-23T01:44:56.234Z,25.84
2018-07-23T01:47:23.854Z,25.83
2018-07-23T01:49:51.506Z,25.83
2018-07-23T01:52:19.384Z,25.83
2018-07-23T01:54:47.619Z,25.80
2018-07-23T01:57:15.251Z,25.79
2018-07-23T01:59:43.181Z,25.79
2018-07-23T02:02:10.875Z,25.78
2018-07-23T02:04:38.625Z,25.73
2018-07-23T02:07:06.877Z,25.76
2018-07-23T02:09:34.589Z,25.75
2018-07-23T02:12:02.763Z,25.74
2018-07-23T02:14:30.388Z,25.73
2018-07-23T02:16:58.794Z,25.72
2018-07-23T02:19:26.459Z,25.75
2018-07-23T02:21:54.100Z,25.76
2018-07-23T02:24:22.188Z,25.76
2018-07-23T02:26:50.268Z,25.76
2018-07-23T02:29:17.895Z,25.78
2018-07-23T02:31:45.798Z,25.76
2018-07-23T02:34:13.461Z,25.75
2018-07-23T02:36:41.101Z,25.74
2018-07-23T02:39:10.762Z,25.75
2018-07-23T02:41:38.426Z,25.73
2018-07-23T02:44:06.107Z,25.73
2018-07-23T02:46:33.767Z,25.70
2018-07-23T02:49:01.406Z,25.70
2018-07-23T02:51:29.582Z,25.68
2018-07-23T02:53:57.590Z,25.68
2018-07-23T02:56:25.290Z,25.67
2018-07-23T02:58:52.909Z,25.68
2018-07-23T03:01:20.577Z,25.64
2018-07-23T03:03:48.196Z,25.65
2018-07-23T03:06:16.218Z,25.67
2018-07-23T03:08:43.864Z,25.65
2018-07-23T03:11:11.529Z,25.64
2018-07-23T03:13:39.148Z,25.65
2018-07-23T03:16:07.004Z,25.64
2018-07-23T03:18:35.353Z,25.64
2018-07-23T03:21:02.995Z,25.63
2018-07-23T03:23:30.660Z,25.62
2018-07-23T03:25:58.350Z,25.62
2018-07-23T03:28:26.384Z,25.62
2018-07-23T03:30:54.304Z,25.62
2018-07-23T03:33:21.989Z,25.62
2018-07-23T03:35:50.381Z,25.29
2018-07-23T03:38:18.012Z,25.63
2018-07-23T03:40:46.480Z,25.64
2018-07-23T03:43:14.123Z,25.63
2018-07-23T03:45:41.800Z,25.64
2018-07-23T03:48:09.425Z,25.65
2018-07-23T03:50:37.028Z,25.65
2018-07-23T03:53:04.705Z,25.65
2018-07-23T03:55:32.812Z,25.65
2018-07-23T03:58:00.483Z,25.67
2018-07-23T04:00:28.094Z,25.69
2018-07-23T04:02:56.164Z,25.68
2018-07-23T04:05:24.009Z,25.69
2018-07-23T04:07:52.157Z,25.69
2018-07-23T04:10:19.827Z,25.71
2018-07-23T04:12:47.474Z,25.71
2018-07-23T04:15:15.381Z,25.71
2018-07-23T04:17:48.180Z,25.72
2018-07-23T04:20:15.860Z,25.73
2018-07-23T04:22:43.958Z,25.75
2018-07-23T04:25:11.928Z,25.75
2018-07-23T04:27:39.634Z,25.75
2018-07-23T04:30:07.309Z,25.74
2018-07-23T04:32:35.472Z,25.75
2018-07-23T04:35:03.090Z,25.76
2018-07-23T04:37:30.740Z,25.78
2018-07-23T04:39:58.434Z,25.77
2018-07-23T04:42:26.093Z,25.76
2018-07-23T04:44:54.044Z,25.76
2018-07-23T04:47:22.036Z,25.76
2018-07-23T04:49:49.673Z,25.55
2018-07-23T04:52:17.386Z,25.75
2018-07-23T04:54:45.313Z,25.78
2018-07-23T04:57:13.594Z,25.78
2018-07-23T04:59:41.478Z,25.80
2018-07-23T05:02:09.781Z,25.82
2018-07-23T05:04:37.453Z,25.82
2018-07-23T05:07:05.349Z,25.83
2018-07-23T05:09:33.017Z,25.84
2018-07-23T05:12:00.657Z,25.85
2018-07-23T05:14:29.076Z,25.84
2018-07-23T05:16:57.065Z,25.86
2018-07-23T05:19:24.700Z,25.87
2018-07-23T05:21:52.359Z,25.89
2018-07-23T05:24:20.347Z,25.89
2018-07-23T05:26:48.342Z,25.89
2018-07-23T05:29:16.464Z,25.89
2018-07-23T05:31:44.513Z,25.91
2018-07-23T05:34:12.610Z,25.92
2018-07-23T05:36:40.567Z,25.91
2018-07-23T05:39:10.899Z,25.93
2018-07-23T05:41:39.168Z,25.94
2018-07-23T05:44:06.824Z,25.95
2018-07-23T05:46:34.480Z,25.96
2018-07-23T05:49:02.143Z,25.99
2018-07-23T05:51:30.260Z,26.00
2018-07-23T05:53:57.921Z,26.01
2018-07-23T05:56:25.593Z,26.02
2018-07-23T05:58:53.288Z,26.04
2018-07-23T06:01:21.416Z,26.04
2018-07-23T06:03:49.079Z,26.04
2018-07-23T06:06:17.071Z,26.06
2018-07-23T06:08:44.692Z,26.06
2018-07-23T06:11:12.321Z,26.08
2018-07-23T06:13:40.309Z,26.10
2018-07-23T06:16:08.116Z,26.12
2018-07-23T06:18:35.787Z,26.14
2018-07-23T06:21:03.713Z,26.15
2018-07-23T06:23:31.426Z,26.16
2018-07-23T06:25:59.332Z,26.14
2018-07-23T06:28:27.324Z,26.11
2018-07-23T06:30:55.205Z,26.08
2018-07-23T06:33:22.889Z,26.04
2018-07-23T06:35:50.760Z,26.03
2018-07-23T06:38:18.390Z,26.03
2018-07-23T06:40:46.469Z,26.05
2018-07-23T06:43:14.107Z,26.08
2018-07-23T06:45:41.828Z,26.11
2018-07-23T06:48:09.870Z,26.13
2018-07-23T06:50:38.018Z,26.16
2018-07-23T06:53:06.151Z,26.19
2018-07-23T06:55:34.101Z,26.21
2018-07-23T06:58:02.083Z,26.27
2018-07-23T07:00:29.767Z,26.33
2018-07-23T07:02:57.409Z,26.39
2018-07-23T07:05:25.337Z,26.39
2018-07-23T07:07:53.038Z,26.37
2018-07-23T07:10:21.024Z,26.38
2018-07-23T07:12:48.678Z,26.41
2018-07-23T07:15:16.657Z,26.44
2018-07-23T07:17:44.321Z,26.50
2018-07-23T07:20:12.060Z,26.56
2018-07-23T07:22:39.663Z,26.61
2018-07-23T07:25:07.312Z,26.62
2018-07-23T07:27:35.240Z,26.58
2018-07-23T07:30:03.017Z,26.55
2018-07-23T07:32:30.690Z,26.53
2018-07-23T07:34:58.354Z,26.53
2018-07-23T07:37:25.989Z,26.52
2018-07-23T07:39:54.236Z,26.57
2018-07-23T07:42:21.939Z,26.63
2018-07-23T07:44:49.580Z,26.66
2018-07-23T07:47:17.873Z,26.72
2018-07-23T07:49:45.551Z,26.76
2018-07-23T07:52:13.481Z,26.71
2018-07-23T07:54:41.404Z,26.65
2018-07-23T07:57:09.231Z,26.61
2018-07-23T07:59:37.118Z,26.60
2018-07-23T08:02:04.801Z,26.58
2018-07-23T08:04:32.521Z,26.60
2018-07-23T08:07:00.436Z,26.65
2018-07-23T08:09:28.157Z,26.72
2018-07-23T08:11:56.298Z,26.77
2018-07-23T08:14:23.963Z,26.81
2018-07-23T08:16:51.616Z,26.83
2018-07-23T08:19:19.550Z,26.82
2018-07-23T08:21:47.521Z,26.78
2018-07-23T08:24:15.461Z,26.76
2018-07-23T08:26:43.452Z,26.76
2018-07-23T08:29:11.575Z,26.76
2018-07-23T08:31:39.305Z,26.82
2018-07-23T08:34:06.897Z,26.87
2018-07-23T08:36:35.278Z,26.93
2018-07-23T08:39:03.147Z,26.97
2018-07-23T08:41:31.080Z,27.01
2018-07-23T08:43:58.766Z,27.01
2018-07-23T08:46:26.395Z,26.99
2018-07-23T08:48:54.042Z,26.95
2018-07-23T08:51:21.826Z,26.89
2018-07-23T08:53:49.474Z,26.90
2018-07-23T08:56:17.998Z,26.98
2018-07-23T08:58:46.065Z,27.04
2018-07-23T09:01:14.223Z,27.08
2018-07-23T09:03:42.276Z,27.09
2018-07-23T09:06:10.169Z,27.08
2018-07-23T09:08:38.162Z,27.08
2018-07-23T09:11:05.977Z,27.11
2018-07-23T09:13:34.058Z,27.06
2018-07-23T09:16:02.099Z,27.12
2018-07-23T09:18:30.119Z,27.16
2018-07-23T09:20:57.767Z,27.17
2018-07-23T09:23:25.402Z,27.19
2018-07-23T09:25:53.121Z,27.19
2018-07-23T09:28:21.347Z,27.18
2018-07-23T09:30:51.437Z,27.12
2018-07-23T09:33:21.042Z,27.12
2018-07-23T09:35:49.021Z,27.19
2018-07-23T09:38:16.674Z,27.22
2018-07-23T09:40:44.623Z,27.18
2018-07-23T09:43:12.806Z,27.16
2018-07-23T09:45:40.478Z,27.16
2018-07-23T09:48:08.684Z,27.20
2018-07-23T09:50:36.396Z,27.26
2018-07-23T09:53:04.257Z,27.32
2018-07-23T09:55:32.050Z,27.38
2018-07-23T09:57:59.679Z,27.38
2018-07-23T10:00:33.265Z,27.38
2018-07-23T10:03:00.922Z,27.33
2018-07-23T10:05:28.584Z,27.29
2018-07-23T10:07:56.641Z,27.28
2018-07-23T10:10:24.660Z,27.27
2018-07-23T10:12:52.613Z,27.23
2018-07-23T10:15:20.649Z,27.23
2018-07-23T10:17:48.610Z,27.23
2018-07-23T10:20:16.826Z,27.22
2018-07-23T10:22:44.502Z,27.27
2018-07-23T10:25:12.421Z,27.31
2018-07-23T10:27:40.385Z,27.34
2018-07-23T10:30:08.016Z,27.35
2018-07-23T10:32:35.710Z,27.35
2018-07-23T10:35:03.377Z,27.33
2018-07-23T10:37:31.280Z,27.34
2018-07-23T10:39:58.994Z,27.36
2018-07-23T10:42:26.625Z,27.38
2018-07-23T10:44:54.676Z,27.38
2018-07-23T10:47:22.700Z,27.39
2018-07-23T10:49:50.300Z,27.39
2018-07-23T10:52:18.584Z,27.35
2018-07-23T10:54:46.467Z,27.33
2018-07-23T10:57:14.492Z,27.36
2018-07-23T10:59:42.525Z,27.42
2018-07-23T11:02:10.707Z,27.43
2018-07-23T11:04:38.349Z,27.40
2018-07-23T11:07:06.043Z,27.41
2018-07-23T11:09:33.656Z,27.45
2018-07-23T11:12:01.298Z,27.49
2018-07-23T11:14:29.225Z,27.53
2018-07-23T11:16:57.205Z,27.57
2018-07-23T11:19:25.151Z,27.61
2018-07-23T11:21:52.998Z,27.61
2018-07-23T11:24:20.645Z,27.64
2018-07-23T11:26:48.571Z,27.66
2018-07-23T11:29:17.048Z,27.71
2018-07-23T11:31:45.163Z,27.74
2018-07-23T11:34:13.291Z,27.71
2018-07-23T11:36:41.592Z,27.65
2018-07-23T11:39:11.225Z,27.67
2018-07-23T11:41:39.838Z,27.71
2018-07-23T11:44:07.459Z,27.76
2018-07-23T11:46:35.660Z,27.79
2018-07-23T11:49:04.069Z,27.82
2018-07-23T11:51:31.677Z,27.85
2018-07-23T11:53:59.514Z,27.87
2018-07-23T11:56:27.284Z,27.89
2018-07-23T11:58:55.226Z,27.91
2018-07-23T12:01:23.519Z,27.92
2018-07-23T12:03:51.440Z,27.93
2018-07-23T12:06:19.353Z,27.92
2018-07-23T12:08:47.007Z,27.92
2018-07-23T12:11:14.685Z,27.93
2018-07-23T12:13:42.315Z,27.97
2018-07-23T12:16:10.276Z,28.02
2018-07-23T12:18:37.982Z,28.01
2018-07-23T12:21:05.594Z,27.98
2018-07-23T12:23:33.226Z,27.94
2018-07-23T12:26:00.900Z,27.95
2018-07-23T12:28:28.581Z,27.99
2018-07-23T12:30:56.236Z,28.00
2018-07-23T12:33:24.254Z,28.03
2018-07-23T12:35:52.317Z,28.05
2018-07-23T12:38:20.204Z,28.07
2018-07-23T12:40:47.969Z,28.09
2018-07-23T12:43:16.221Z,28.11
2018-07-23T12:45:43.911Z,28.13
2018-07-23T12:48:11.851Z,28.15
2018-07-23T12:50:39.481Z,28.17
2018-07-23T12:53:07.523Z,28.19
2018-07-23T12:55:35.228Z,28.21
2018-07-23T12:58:02.941Z,28.24
2018-07-23T13:00:30.576Z,28.27
2018-07-23T13:02:58.245Z,28.28
2018-07-23T13:05:30.938Z,28.31
2018-07-23T13:07:59.569Z,28.33
2018-07-23T13:10:27.467Z,28.36
2018-07-23T13:12:55.124Z,28.38
2018-07-23T13:15:23.265Z,28.39
2018-07-23T13:17:51.370Z,28.42
2018-07-23T13:20:19.020Z,28.43
2018-07-23T13:22:47.449Z,28.45
2018-07-23T13:25:15.381Z,28.48
2018-07-23T13:27:43.539Z,28.49
2018-07-23T13:30:11.257Z,28.52
2018-07-23T13:32:39.301Z,28.53
2018-07-23T13:35:07.031Z,28.55
2018-07-23T13:37:34.786Z,28.56
2018-07-23T13:40:02.477Z,28.57
2018-07-23T13:42:30.348Z,28.61
2018-07-23T13:44:58.001Z,28.61
2018-07-23T13:47:25.667Z,28.64
2018-07-23T13:49:53.334Z,28.66
2018-07-23T13:52:21.220Z,28.67
2018-07-23T13:54:48.924Z,28.69
2018-07-23T13:57:16.931Z,28.70
2018-07-23T13:59:44.908Z,28.73
2018-07-23T14:02:13.244Z,28.75
2018-07-23T14:04:40.980Z,28.77
2018-07-23T14:07:08.910Z,28.78
2018-07-23T14:09:36.558Z,28.80
2018-07-23T14:12:04.503Z,28.82
2018-07-23T14:14:32.386Z,28.82
2018-07-23T14:17:00.119Z,28.84
2018-07-23T14:19:27.801Z,28.85
2018-07-23T14:21:55.700Z,28.91
2018-07-23T14:24:23.362Z,28.98
2018-07-23T14:26:51.989Z,29.08
2018-07-23T14:29:20.213Z,29.23
2018-07-23T14:31:48.427Z,29.46
2018-07-23T14:34:16.106Z,29.82
2018-07-23T14:36:43.776Z,30.64
2018-07-23T14:39:13.285Z,32.33
2018-07-23T14:41:41.283Z,33.62
2018-07-23T14:44:09.272Z,34.42
2018-07-23T14:46:37.277Z,34.89
2018-07-23T14:49:05.154Z,35.23
2018-07-23T14:51:32.828Z,35.48
2018-07-23T14:54:00.874Z,35.67
2018-07-23T14:56:28.509Z,35.85
2018-07-23T14:58:56.234Z,35.95
2018-07-23T15:01:23.876Z,35.88
2018-07-23T15:03:51.526Z,35.69
2018-07-23T15:06:19.485Z,34.70
2018-07-23T15:08:47.656Z,33.73
2018-07-23T15:11:15.297Z,32.90
2018-07-23T15:13:43.073Z,31.90
2018-07-23T15:16:11.013Z,31.26
2018-07-23T15:18:38.666Z,30.92
2018-07-23T15:21:06.415Z,30.66
2018-07-23T15:23:34.074Z,30.53
2018-07-23T15:26:01.845Z,30.50
2018-07-23T15:28:29.840Z,30.64
2018-07-23T15:30:57.553Z,30.47
2018-07-23T15:33:25.559Z,30.33
2018-07-23T15:35:53.595Z,30.18
2018-07-23T15:38:21.909Z,30.17
2018-07-23T15:40:49.597Z,30.42
2018-07-23T15:43:17.404Z,30.54
2018-07-23T15:45:45.471Z,30.52
2018-07-23T15:48:13.000Z,30.63
2018-07-23T15:50:41.223Z,30.42
2018-07-23T15:53:09.210Z,30.20
2018-07-23T15:55:36.904Z,30.07
2018-07-23T15:58:05.032Z,29.95
2018-07-23T16:00:32.661Z,29.87
2018-07-23T16:03:00.351Z,29.79
2018-07-23T16:05:28.130Z,29.76
2018-07-23T16:07:56.107Z,29.80
2018-07-23T16:10:24.033Z,29.87
2018-07-23T16:12:51.677Z,29.92
2018-07-23T16:15:19.404Z,29.93
2018-07-23T16:17:47.518Z,29.96
2018-07-23T16:20:15.166Z,30.09
2018-07-23T16:22:42.892Z,30.08
2018-07-23T16:25:11.249Z,29.99
2018-07-23T16:27:38.893Z,29.94
2018-07-23T16:30:07.594Z,29.91
2018-07-23T16:32:35.263Z,29.91
2018-07-23T16:35:03.144Z,29.91
2018-07-23T16:37:30.822Z,29.87
2018-07-23T16:39:58.776Z,29.80
2018-07-23T16:42:26.428Z,29.74
2018-07-23T16:44:54.397Z,29.69
2018-07-23T16:47:22.071Z,29.69
2018-07-23T16:49:49.734Z,29.74
2018-07-23T16:52:17.580Z,29.82
2018-07-23T16:54:45.385Z,29.93
2018-07-23T16:57:13.052Z,30.09
2018-07-23T16:59:41.279Z,30.31
2018-07-23T17:02:08.962Z,30.42
2018-07-23T17:04:37.133Z,30.59
2018-07-23T17:07:04.850Z,30.73
2018-07-23T17:09:32.524Z,30.83
2018-07-23T17:12:00.147Z,30.89
2018-07-23T17:14:28.071Z,30.90
2018-07-23T17:16:55.830Z,30.95
2018-07-23T17:19:23.492Z,31.02
2018-07-23T17:21:51.170Z,31.11
2018-07-23T17:24:18.846Z,31.25
2018-07-23T17:26:46.534Z,31.38
2018-07-23T17:29:14.178Z,31.49
2018-07-23T17:31:42.381Z,31.57
2018-07-23T17:34:10.015Z,31.63
2018-07-23T17:36:37.663Z,31.69
2018-07-23T17:39:08.703Z,31.75
2018-07-23T17:41:36.370Z,31.81
2018-07-23T17:44:04.041Z,31.81
2018-07-23T17:46:31.753Z,31.84
2018-07-23T17:48:59.764Z,31.88
2018-07-23T17:51:27.729Z,31.90
2018-07-23T17:53:55.424Z,31.92
2018-07-23T17:56:23.327Z,31.93
2018-07-23T17:58:51.043Z,31.41
2018-07-23T18:01:19.245Z,31.92
2018-07-23T18:03:47.173Z,31.68
2018-07-23T18:06:15.165Z,31.54
2018-07-23T18:08:42.861Z,31.46
2018-07-23T18:11:10.553Z,31.52
2018-07-23T18:13:38.454Z,31.48
2018-07-23T18:16:06.350Z,31.54
2018-07-23T18:18:35.449Z,31.53
2018-07-23T18:21:03.316Z,31.45
2018-07-23T18:23:30.970Z,31.41
2018-07-23T18:25:58.664Z,31.44
2018-07-23T18:28:26.576Z,31.48
2018-07-23T18:30:54.830Z,31.37
2018-07-23T18:33:22.476Z,31.38
2018-07-23T18:35:50.181Z,31.39
2018-07-23T18:38:18.218Z,31.37
2018-07-23T18:40:46.183Z,31.35
2018-07-23T18:43:14.399Z,31.31
2018-07-23T18:45:42.518Z,31.26
2018-07-23T18:49:26.865Z,31.19
2018-07-23T18:51:55.034Z,31.11
2018-07-23T18:54:24.477Z,31.06
2018-07-23T18:56:53.866Z,31.00
2018-07-23T18:59:21.617Z,30.94
2018-07-23T19:01:50.792Z,30.87
2018-07-23T19:04:18.452Z,30.78
2018-07-23T19:06:46.585Z,30.65
2018-07-23T19:09:16.758Z,30.47
2018-07-23T19:11:45.492Z,30.31
2018-07-23T19:14:14.488Z,30.19
2018-07-23T19:16:42.375Z,30.08
2018-07-23T19:19:10.138Z,30.00
2018-07-23T19:21:38.151Z,29.92
2018-07-23T19:24:05.847Z,29.87
2018-07-23T19:26:33.498Z,29.79
2018-07-23T19:29:01.153Z,29.73
2018-07-23T19:31:29.301Z,29.67
2018-07-23T19:33:58.519Z,29.62
2018-07-23T19:36:26.588Z,29.57
2018-07-23T19:38:55.474Z,29.50
2018-07-23T19:41:23.158Z,29.43
2018-07-23T19:43:51.340Z,29.36
2018-07-23T19:46:19.083Z,29.30
2018-07-23T19:48:47.148Z,29.23
2018-07-23T19:51:14.836Z,29.17
2018-07-23T19:53:42.494Z,29.08
2018-07-23T19:56:10.794Z,29.05
2018-07-23T19:58:39.189Z,29.00
2018-07-23T20:01:06.902Z,28.94
2018-07-23T20:03:34.935Z,28.90
2018-07-23T20:06:03.285Z,28.85
2018-07-23T20:08:31.315Z,28.79
2018-07-23T20:10:58.963Z,28.76
2018-07-23T20:13:26.860Z,28.71
2018-07-23T20:15:55.295Z,28.68
2018-07-23T20:18:23.328Z,28.66
2018-07-23T20:20:51.381Z,28.62
2018-07-23T20:23:19.025Z,28.57
2018-07-23T20:25:46.717Z,28.53
2018-07-23T20:28:14.424Z,28.49
2018-07-23T20:30:42.827Z,28.45
2018-07-23T20:33:10.798Z,28.41
2018-07-23T20:35:38.424Z,28.38
2018-07-23T20:38:06.215Z,28.35
2018-07-23T20:40:34.007Z,28.33
2018-07-23T20:43:01.776Z,28.30
2018-07-23T20:45:29.742Z,28.28
2018-07-23T20:47:57.877Z,28.26
2018-07-23T20:50:25.578Z,28.24
2018-07-23T20:52:53.811Z,28.20
2018-07-23T20:55:21.535Z,28.16
2018-07-23T20:57:49.499Z,28.13
2018-07-23T21:00:17.282Z,28.11
2018-07-23T21:02:44.893Z,28.09
2018-07-23T21:05:12.797Z,28.05
2018-07-23T21:07:40.726Z,28.02
2018-07-23T21:10:08.384Z,27.98
2018-07-23T21:12:36.645Z,27.94
2018-07-23T21:15:05.326Z,27.93
2018-07-23T21:17:32.972Z,27.90
2018-07-23T21:20:00.674Z,27.86
2018-07-23T21:22:28.332Z,27.84
2018-07-23T21:24:56.374Z,27.82
2018-07-23T21:27:24.054Z,27.78
2018-07-23T21:29:51.961Z,27.76
2018-07-23T21:32:19.971Z,27.75
2018-07-23T21:34:48.255Z,27.73
2018-07-23T21:37:16.627Z,27.71
2018-07-23T21:39:44.629Z,27.68
2018-07-23T21:42:12.559Z,27.65
2018-07-23T21:44:40.307Z,27.63
2018-07-23T21:47:08.255Z,27.61
2018-07-23T21:49:35.910Z,27.60
2018-07-23T21:52:03.674Z,27.56
2018-07-23T21:54:31.880Z,27.53
2018-07-23T21:56:59.554Z,27.52
2018-07-23T21:59:27.217Z,27.51
2018-07-23T22:01:55.086Z,27.51
2018-07-23T22:04:22.838Z,27.51
2018-07-23T22:06:50.546Z,27.49
2018-07-23T22:09:18.853Z,27.48
2018-07-23T22:11:46.492Z,27.47
2018-07-23T22:14:14.191Z,27.44
2018-07-23T22:16:42.160Z,27.42
2018-07-23T22:19:09.882Z,27.41
2018-07-23T22:21:38.059Z,27.40
2018-07-23T22:24:06.177Z,27.38
2018-07-23T22:26:33.874Z,27.36
2018-07-23T22:29:01.896Z,27.35
2018-07-23T22:31:29.872Z,27.33
2018-07-23T22:33:57.827Z,27.31
2018-07-23T22:36:25.618Z,27.30
2018-07-23T22:38:53.326Z,27.28
2018-07-23T22:41:21.089Z,27.27
2018-07-23T22:43:49.075Z,27.27
2018-07-23T22:46:17.252Z,27.25
2018-07-23T22:48:45.057Z,27.24
2018-07-23T22:51:12.742Z,27.22
2018-07-23T22:53:40.765Z,27.22
2018-07-23T22:56:08.783Z,27.20
2018-07-23T22:58:36.433Z,27.19
2018-07-23T23:01:04.202Z,27.18
2018-07-23T23:03:32.201Z,27.17
2018-07-23T23:06:00.163Z,27.15
2018-07-23T23:08:28.100Z,27.14
2018-07-23T23:10:55.781Z,27.12
2018-07-23T23:13:24.141Z,27.11
2018-07-23T23:15:52.041Z,27.11
2018-07-23T23:18:19.986Z,27.10
2018-07-23T23:20:47.958Z,27.10
2018-07-23T23:23:15.969Z,27.08
2018-07-23T23:25:43.606Z,27.07
2018-07-23T23:28:11.296Z,27.03
2018-07-23T23:30:38.947Z,27.04
2018-07-23T23:33:06.902Z,27.02
2018-07-23T23:35:34.797Z,27.00
2018-07-23T23:38:02.863Z,26.98
2018-07-23T23:40:30.565Z,26.98
2018-07-23T23:42:58.902Z,26.96
2018-07-23T23:45:27.153Z,26.96
2018-07-23T23:47:54.902Z,26.93
2018-07-23T23:50:22.590Z,26.91
2018-07-23T23:52:50.267Z,26.90
2018-07-23T23:55:18.620Z,26.88
2018-07-23T23:57:46.567Z,26.86
